createdAt,value
2022-08-20T00:00:38.139Z,78.6
2022-08-20T00:06:13.208Z,78.7
2022-08-20T00:11:48.860Z,78.7
2022-08-20T00:17:23.730Z,78.7
2022-08-20T00:22:58.673Z,78.8
2022-08-20T00:28:33.708Z,78.9
2022-08-20T00:34:08.450Z,79.1
2022-08-20T00:39:43.524Z,79.1
2022-08-20T00:45:19.140Z,79.3
2022-08-20T00:50:53.920Z,79.4
2022-08-20T00:56:29.747Z,79.6
2022-08-20T01:02:08.770Z,79.7
2022-08-20T01:07:44.815Z,79.6
2022-08-20T01:13:20.592Z,79.5
2022-08-20T01:18:56.312Z,79.4
2022-08-20T01:24:31.401Z,79.4
2022-08-20T01:30:07.334Z,79.5
2022-08-20T01:35:43.484Z,79.7
2022-08-20T01:41:28.313Z,79.9
2022-08-20T01:47:04.074Z,80.2
2022-08-20T01:52:39.550Z,80.2
2022-08-20T01:58:14.304Z,80.1
2022-08-20T02:03:49.360Z,79.9
2022-08-20T02:09:24.304Z,79.8
2022-08-20T02:14:59.401Z,79.9
2022-08-20T02:20:33.980Z,80.2
2022-08-20T02:26:08.774Z,80.4
2022-08-20T02:32:33.747Z,80.3
2022-08-20T02:38:10.056Z,80.1
2022-08-20T02:44:06.529Z,80
2022-08-20T02:49:39.367Z,80.1
2022-08-20T02:55:28.354Z,80.1
2022-08-20T03:01:03.957Z,80
2022-08-20T03:06:39.409Z,80
2022-08-20T03:12:14.290Z,79.9
2022-08-20T03:17:49.085Z,80
2022-08-20T03:23:24.757Z,80.1
2022-08-20T03:28:59.509Z,80
2022-08-20T03:34:34.783Z,80.1
2022-08-20T03:40:10.376Z,80.3
2022-08-20T03:45:45.960Z,80.4
2022-08-20T03:51:20.863Z,80.5
2022-08-20T03:56:55.722Z,80.5
2022-08-20T04:02:30.379Z,80.7
2022-08-20T04:08:05.311Z,80.8
2022-08-20T04:13:43.761Z,80.9
2022-08-20T04:19:19.499Z,80.8
2022-08-20T04:24:54.362Z,80.8
2022-08-20T04:30:29.393Z,80.7
2022-08-20T04:36:04.311Z,80.7
2022-08-20T04:41:39.441Z,80.7
2022-08-20T04:47:14.136Z,80.6
2022-08-20T04:52:48.923Z,80.6
2022-08-20T04:58:24.843Z,80.6
2022-08-20T05:03:59.845Z,80.6
2022-08-20T05:09:44.354Z,80.7
2022-08-20T05:15:20.227Z,80.8
2022-08-20T05:20:55.032Z,81
2022-08-20T05:26:29.866Z,81
2022-08-20T05:32:04.784Z,81
2022-08-20T05:37:39.443Z,83.3
2022-08-20T05:43:36.295Z,84.2
2022-08-20T05:49:08.886Z,85.1
2022-08-20T05:54:43.720Z,85.2
2022-08-20T06:00:18.671Z,85.9
2022-08-20T06:06:03.942Z,86.4
2022-08-20T06:12:22.401Z,86.5
2022-08-20T06:18:01.186Z,87.1
2022-08-20T06:24:00.061Z,86.8
2022-08-20T06:29:37.821Z,86.7
2022-08-20T06:35:19.379Z,86.3
2022-08-20T06:40:56.154Z,85.9
2022-08-20T06:46:30.947Z,86.2
2022-08-20T06:52:05.847Z,86.5
2022-08-20T06:57:40.524Z,86.1
2022-08-20T07:03:15.267Z,85.7
2022-08-20T07:08:50.294Z,85.7
2022-08-20T07:14:25.151Z,86
2022-08-20T07:20:00.321Z,85.4
2022-08-20T07:25:34.952Z,85.7
2022-08-20T07:31:16.242Z,86.2
2022-08-20T07:36:55.596Z,85.5
2022-08-20T07:42:53.600Z,85.4
2022-08-20T07:48:31.822Z,85.3
2022-08-20T07:54:07.749Z,84.6
2022-08-20T07:59:45.216Z,84.2
2022-08-20T08:05:21.123Z,84.2
2022-08-20T08:10:56.058Z,82.8
2022-08-20T08:16:31.781Z,83.1
2022-08-20T08:22:07.185Z,83.1
2022-08-20T08:27:51.148Z,82.5
2022-08-20T08:33:26.091Z,79.7
2022-08-20T08:39:01.096Z,79.8
2022-08-20T08:44:57.626Z,80.3
2022-08-20T08:50:54.825Z,79.3
2022-08-20T08:56:31.667Z,79.5
2022-08-20T09:02:06.924Z,80.9
2022-08-20T09:07:54.638Z,82.3
2022-08-20T09:13:30.368Z,82.6
2022-08-20T09:19:05.469Z,82.3
2022-08-20T09:24:40.322Z,82.1
2022-08-20T09:30:15.579Z,82
2022-08-20T09:35:55.024Z,81.5
2022-08-20T09:41:30.150Z,81.4
2022-08-20T09:47:07.943Z,81.2
2022-08-20T09:52:43.834Z,80.8
2022-08-20T09:58:19.699Z,80.5
2022-08-20T10:03:54.737Z,80.3
2022-08-20T10:09:30.184Z,80.2
2022-08-20T10:15:05.988Z,79.4
2022-08-20T10:20:40.763Z,78.8
2022-08-20T10:26:15.637Z,79.1
2022-08-20T10:31:51.370Z,79.1
2022-08-20T10:37:26.339Z,78.6
2022-08-20T10:43:23.262Z,78.4
2022-08-20T10:48:56.006Z,78.3
2022-08-20T10:54:30.831Z,77.9
2022-08-20T11:00:05.610Z,77.7
2022-08-20T11:05:40.560Z,77.3
2022-08-20T11:11:16.636Z,77
2022-08-20T11:16:51.503Z,76.6
2022-08-20T11:22:26.320Z,76.3
2022-08-20T11:28:02.421Z,76.1
2022-08-20T11:33:37.572Z,75.6
2022-08-20T11:39:13.380Z,75.4
2022-08-20T11:45:10.117Z,74.3
2022-08-20T11:50:44.161Z,74.1
2022-08-20T11:56:19.950Z,73.9
2022-08-20T12:02:04.036Z,73.4
2022-08-20T12:07:54.218Z,73.2
2022-08-20T12:13:49.345Z,73.2
2022-08-20T12:19:24.625Z,72.7
2022-08-20T12:24:59.309Z,72.3
2022-08-20T12:30:34.468Z,71.5
2022-08-20T12:36:10.239Z,71.5
2022-08-20T12:42:06.979Z,71.1
2022-08-20T12:47:45.114Z,70.5
2022-08-20T12:53:21.281Z,69.7
2022-08-20T12:58:56.211Z,67.6
2022-08-20T13:04:31.083Z,67.6
2022-08-20T13:10:06.690Z,66.3
2022-08-20T13:15:41.692Z,65.6
2022-08-20T13:21:24.128Z,64.8
2022-08-20T13:27:00.536Z,64.2
2022-08-20T13:32:35.210Z,63.6
2022-08-20T13:38:10.208Z,62.4
2022-08-20T13:44:06.830Z,61.3
2022-08-20T13:49:39.854Z,60.3
2022-08-20T13:55:15.173Z,60.4
2022-08-20T14:00:59.645Z,59.2
2022-08-20T14:06:35.355Z,58.6
2022-08-20T14:12:10.120Z,57.5
2022-08-20T14:17:45.046Z,55.2
2022-08-20T14:23:19.878Z,55.5
2022-08-20T14:28:54.951Z,55.1
2022-08-20T14:34:29.785Z,54.6
2022-08-20T14:40:06.045Z,54.3
2022-08-20T14:45:46.522Z,53.5
2022-08-20T14:51:21.507Z,53.1
2022-08-20T14:57:02.310Z,52.6
2022-08-20T15:02:37.284Z,51.2
2022-08-20T15:08:14.383Z,51
2022-08-20T15:13:53.842Z,49.9
2022-08-20T15:19:29.261Z,50.4
2022-08-20T15:25:04.542Z,50.3
2022-08-20T15:30:40.995Z,50.4
2022-08-20T15:36:15.912Z,51.1
2022-08-20T15:42:12.695Z,50
2022-08-20T15:47:45.577Z,50.4
2022-08-20T15:53:21.787Z,51.4
2022-08-20T15:58:57.403Z,52.3
2022-08-20T16:04:32.094Z,53.1
2022-08-20T16:10:07.862Z,53.4
2022-08-20T16:15:50.618Z,52.2
2022-08-20T16:21:25.884Z,51
2022-08-20T16:27:22.728Z,49.9
2022-08-20T16:32:58.308Z,49.3
2022-08-20T16:38:33.581Z,49.4
2022-08-20T16:44:30.517Z,49.6
2022-08-20T16:50:04.382Z,48.9
2022-08-20T16:55:39.172Z,49.3
2022-08-20T17:01:15.809Z,51.7
2022-08-20T17:06:53.350Z,52.8
2022-08-20T17:12:29.719Z,53.6
2022-08-20T17:18:04.537Z,53.2
2022-08-20T17:23:56.739Z,54.3
2022-08-20T17:29:31.963Z,53.9
2022-08-20T17:35:06.665Z,54.6
2022-08-20T17:40:41.318Z,55.9
2022-08-20T17:46:15.916Z,56.1
2022-08-20T17:51:50.656Z,57.4
2022-08-20T17:57:26.626Z,57.3
2022-08-20T18:03:01.422Z,57.3
2022-08-20T18:08:36.302Z,59.2
2022-08-20T18:14:10.941Z,60.8
2022-08-20T18:19:45.736Z,61.8
2022-08-20T18:25:20.959Z,62.5
2022-08-20T18:30:57.656Z,63.7
2022-08-20T18:36:33.022Z,63.9
2022-08-20T18:42:29.597Z,64.9
2022-08-20T18:48:02.186Z,64.6
2022-08-20T18:53:36.864Z,65.9
2022-08-20T18:59:11.776Z,68.1
2022-08-20T19:04:52.794Z,67
2022-08-20T19:10:40.734Z,69.8
2022-08-20T19:16:26.685Z,69.9
2022-08-20T19:22:01.400Z,70.3
2022-08-20T19:27:36.120Z,70.6
2022-08-20T19:33:35.030Z,69
2022-08-20T19:39:25.746Z,71.4
2022-08-20T19:45:26.064Z,71
2022-08-20T19:51:06.370Z,70.9
2022-08-20T19:56:42.816Z,69.3
2022-08-20T20:02:23.519Z,68.6
2022-08-20T20:07:59.252Z,68.4
2022-08-20T20:13:40.394Z,68.2
2022-08-20T20:19:28.188Z,68.3
2022-08-20T20:25:10.274Z,68.5
2022-08-20T20:30:55.575Z,68.8
2022-08-20T20:36:33.509Z,69.2
2022-08-20T20:42:31.234Z,69
2022-08-20T20:48:05.282Z,68.9
2022-08-20T20:53:55.247Z,68.8
2022-08-20T20:59:37.867Z,68.8
2022-08-20T21:05:14.505Z,69.2
2022-08-20T21:11:23.079Z,69.7
2022-08-20T21:16:57.784Z,70
2022-08-20T21:22:34.555Z,70.4
2022-08-20T21:28:12.055Z,70.7
2022-08-20T21:33:46.926Z,71.1
2022-08-20T21:39:22.634Z,71.5
2022-08-20T21:45:20.940Z,71.8
2022-08-20T21:50:53.659Z,72
2022-08-20T21:56:32.243Z,72.3
2022-08-20T22:02:07.039Z,72.6
2022-08-20T22:07:41.899Z,72.9
2022-08-20T22:13:24.794Z,73.2
2022-08-20T22:19:16.477Z,73.5
2022-08-20T22:24:51.549Z,73.9
2022-08-20T22:30:26.366Z,74.2
2022-08-20T22:36:04.494Z,74.4
2022-08-20T22:42:00.812Z,74.5
2022-08-20T22:47:33.431Z,74.7
2022-08-20T22:53:13.517Z,74.9
2022-08-20T22:58:50.620Z,75.1
2022-08-20T23:04:28.240Z,75.3
2022-08-20T23:10:03.529Z,75.5
2022-08-20T23:15:45.701Z,75.6
2022-08-20T23:21:21.766Z,75.6
2022-08-20T23:26:56.440Z,75.7
2022-08-20T23:32:31.109Z,75.7
2022-08-20T23:38:06.798Z,75.6
2022-08-20T23:44:03.448Z,75.5
2022-08-20T23:49:37.298Z,75.8
2022-08-20T23:55:12.965Z,75.9
